P.t. Monto — VMBF — position and weather

sailwx.info

Track history (hours):
 
Tides and Currents Weather Stations Pressure Air Temp Water Temp Dewpoint Dewpoint Depression Visibility Wind Speed Wind Dir Waves Ship Positions

P.t. Monto

Last reported at 2014-Nov-14 03:13 UTC. Time now 2014-Nov-25 00:39 UTC.
Position S 36°40' E 174°58'.
Warning: this ship's position is 10 days out of date.

Length 32 m; draft 3.5 m.

Type: Tug. MMSI: 503612000.

Date/timePositionNaut miles runAvg speedWind from/ knotsBaromVisibWave heightAir tempDewpointWater temp
2014-Nov-14 03:13S 36°40' E 174°58'710.5
2014-Nov-14 02:33S 36°45' E 174°51'3 2.6
2014-Nov-14 01:33S 36°42' E 174°50'7 7.3
2014-Nov-14 00:33S 36°35' E 174°52'7 7.1
2014-Nov-13 23:33S 36°28' E 174°54'  
2014-Nov-06 06:08S 26°44' E 153°11'4 5.9
2014-Nov-06 05:25S 26°48' E 153°10'6 6.5
2014-Nov-06 04:32S 26°54' E 153°10'9 8.1
2014-Nov-06 03:27S 27°01' E 153°15'9 8.3
2014-Nov-06 02:24S 27°09' E 153°20'7 8.0
2014-Nov-06 01:33S 27°15' E 153°15'3 2.9
2014-Nov-06 00:29S 27°17' E 153°13'0 0.1
2014-Nov-05 23:33S 27°17' E 153°13'10 3.4
2014-Nov-05 20:32S 27°26' E 153°07'2 0.6
2014-Nov-05 17:26S 27°27' E 153°05'0 0.0
2014-Nov-05 16:27S 27°27' E 153°05'0 0.0
2014-Nov-05 15:31S 27°27' E 153°05'0 0.0
2014-Nov-05 14:32S 27°27' E 153°05'0 0.0
2014-Nov-05 13:24S 27°27' E 153°05'0 0.0
2014-Nov-05 12:24S 27°27' E 153°05'0 0.0
2014-Nov-05 11:28S 27°27' E 153°05'0 0.0
2014-Nov-05 08:09S 27°27' E 153°05'0 0.0
2014-Nov-05 04:29S 27°27' E 153°05'0 0.0
2014-Nov-05 03:23S 27°27' E 153°05'0 0.0
2014-Nov-04 23:24S 27°27' E 153°05'1 1.2
2014-Nov-04 22:28S 27°27' E 153°07'1 1.2
2014-Nov-04 21:32S 27°27' E 153°05'0 0.0
2014-Nov-04 20:14S 27°27' E 153°05'0 0.0
2014-Nov-04 19:07S 27°27' E 153°05'0 0.0
2014-Nov-04 18:27S 27°27' E 153°05'0 0.1
2014-Nov-04 16:32S 27°27' E 153°05'0 0.1
2014-Nov-04 14:25S 27°27' E 153°05'0 0.0
2014-Nov-04 11:09S 27°27' E 153°05'0 0.0
2014-Nov-04 10:28S 27°27' E 153°05'0 0.0
2014-Nov-04 09:28S 27°27' E 153°05'0 0.0
2014-Nov-04 06:14S 27°27' E 153°05'0 0.0
2014-Nov-04 03:27S 27°27' E 153°05'  
Track history (hours):
 
Tides and Currents Weather Stations Pressure Air Temp Water Temp Dewpoint Dewpoint Depression Visibility Wind Speed Wind Dir Waves Ship Positions

P.t. Monto

Last reported at 2014-Nov-14 03:13 UTC. Time now 2014-Nov-25 00:39 UTC.
Position S 36°40' E 174°58'.
Warning: this ship's position is 10 days out of date.

Length 32 m; draft 3.5 m.

Type: Tug. MMSI: 503612000.

Date/timePositionNaut miles runAvg speedWind from/ knotsBaromVisibWave heightAir tempDewpointWater temp
2014-Nov-14 03:13S 36°40' E 174°58'710.5
2014-Nov-14 02:33S 36°45' E 174°51'3 2.6
2014-Nov-14 01:33S 36°42' E 174°50'7 7.3
2014-Nov-14 00:33S 36°35' E 174°52'7 7.1
2014-Nov-13 23:33S 36°28' E 174°54'  
2014-Nov-06 06:08S 26°44' E 153°11'4 5.9
2014-Nov-06 05:25S 26°48' E 153°10'6 6.5
2014-Nov-06 04:32S 26°54' E 153°10'9 8.1
2014-Nov-06 03:27S 27°01' E 153°15'9 8.3
2014-Nov-06 02:24S 27°09' E 153°20'7 8.0
2014-Nov-06 01:33S 27°15' E 153°15'3 2.9
2014-Nov-06 00:29S 27°17' E 153°13'0 0.1
2014-Nov-05 23:33S 27°17' E 153°13'10 3.4
2014-Nov-05 20:32S 27°26' E 153°07'2 0.6
2014-Nov-05 17:26S 27°27' E 153°05'0 0.0
2014-Nov-05 16:27S 27°27' E 153°05'0 0.0
2014-Nov-05 15:31S 27°27' E 153°05'0 0.0
2014-Nov-05 14:32S 27°27' E 153°05'0 0.0
2014-Nov-05 13:24S 27°27' E 153°05'0 0.0
2014-Nov-05 12:24S 27°27' E 153°05'0 0.0
2014-Nov-05 11:28S 27°27' E 153°05'0 0.0
2014-Nov-05 08:09S 27°27' E 153°05'0 0.0
2014-Nov-05 04:29S 27°27' E 153°05'0 0.0
2014-Nov-05 03:23S 27°27' E 153°05'0 0.0
2014-Nov-04 23:24S 27°27' E 153°05'1 1.2
2014-Nov-04 22:28S 27°27' E 153°07'1 1.2
2014-Nov-04 21:32S 27°27' E 153°05'0 0.0
2014-Nov-04 20:14S 27°27' E 153°05'0 0.0
2014-Nov-04 19:07S 27°27' E 153°05'0 0.0
2014-Nov-04 18:27S 27°27' E 153°05'0 0.1
2014-Nov-04 16:32S 27°27' E 153°05'0 0.1
2014-Nov-04 14:25S 27°27' E 153°05'0 0.0
2014-Nov-04 11:09S 27°27' E 153°05'0 0.0
2014-Nov-04 10:28S 27°27' E 153°05'0 0.0
2014-Nov-04 09:28S 27°27' E 153°05'0 0.0
2014-Nov-04 06:14S 27°27' E 153°05'0 0.0
2014-Nov-04 03:27S 27°27' E 153°05'  

Dump ship's entire track history